sensor_id;sensor_type;location;lat;lon;timestamp;temperature;humidity
19847;DHT22;10084;50.518;8.588;2023-12-07T00:01:05;3.60;95.10
19847;DHT22;10084;50.518;8.588;2023-12-07T00:03:31;3.60;95.30
19847;DHT22;10084;50.518;8.588;2023-12-07T00:05:56;3.60;95.40
19847;DHT22;10084;50.518;8.588;2023-12-07T00:08:22;3.60;95.60
19847;DHT22;10084;50.518;8.588;2023-12-07T00:10:48;3.60;95.80
19847;DHT22;10084;50.518;8.588;2023-12-07T00:13:13;3.60;96.00
19847;DHT22;10084;50.518;8.588;2023-12-07T00:15:39;3.70;95.90
19847;DHT22;10084;50.518;8.588;2023-12-07T00:18:05;3.70;95.70
19847;DHT22;10084;50.518;8.588;2023-12-07T00:20:31;3.60;95.40
19847;DHT22;10084;50.518;8.588;2023-12-07T00:22:56;3.60;95.20
19847;DHT22;10084;50.518;8.588;2023-12-07T00:25:22;3.50;95.10
19847;DHT22;10084;50.518;8.588;2023-12-07T00:27:48;3.40;95.10
19847;DHT22;10084;50.518;8.588;2023-12-07T00:30:14;3.40;95.20
19847;DHT22;10084;50.518;8.588;2023-12-07T00:32:40;3.40;95.20
19847;DHT22;10084;50.518;8.588;2023-12-07T00:35:10;3.40;95.40
19847;DHT22;10084;50.518;8.588;2023-12-07T00:37:36;3.40;95.60
19847;DHT22;10084;50.518;8.588;2023-12-07T00:40:02;3.40;95.70
19847;DHT22;10084;50.518;8.588;2023-12-07T00:42:29;3.40;95.80
19847;DHT22;10084;50.518;8.588;2023-12-07T00:44:55;3.40;96.00
19847;DHT22;10084;50.518;8.588;2023-12-07T00:47:21;3.40;96.10
19847;DHT22;10084;50.518;8.588;2023-12-07T00:49:47;3.50;96.10
19847;DHT22;10084;50.518;8.588;2023-12-07T00:52:13;3.50;96.10
19847;DHT22;10084;50.518;8.588;2023-12-07T00:54:39;3.50;96.20
19847;DHT22;10084;50.518;8.588;2023-12-07T00:57:05;3.60;96.20
19847;DHT22;10084;50.518;8.588;2023-12-07T00:59:31;3.60;96.20
19847;DHT22;10084;50.518;8.588;2023-12-07T01:02:06;3.70;96.20
19847;DHT22;10084;50.518;8.588;2023-12-07T01:04:32;3.70;96.10
19847;DHT22;10084;50.518;8.588;2023-12-07T01:06:58;3.70;96.00
19847;DHT22;10084;50.518;8.588;2023-12-07T01:09:24;3.70;95.80
19847;DHT22;10084;50.518;8.588;2023-12-07T01:11:50;3.70;95.80
19847;DHT22;10084;50.518;8.588;2023-12-07T01:14:17;3.70;95.70
19847;DHT22;10084;50.518;8.588;2023-12-07T01:16:43;3.70;95.40
19847;DHT22;10084;50.518;8.588;2023-12-07T01:19:10;3.60;95.10
19847;DHT22;10084;50.518;8.588;2023-12-07T01:21:36;3.50;94.80
19847;DHT22;10084;50.518;8.588;2023-12-07T01:24:01;3.50;94.80
19847;DHT22;10084;50.518;8.588;2023-12-07T01:26:27;3.40;94.50
19847;DHT22;10084;50.518;8.588;2023-12-07T01:28:53;3.30;94.50
19847;DHT22;10084;50.518;8.588;2023-12-07T01:31:19;3.20;94.50
19847;DHT22;10084;50.518;8.588;2023-12-07T01:33:44;3.20;94.50
19847;DHT22;10084;50.518;8.588;2023-12-07T01:36:11;3.10;94.70
19847;DHT22;10084;50.518;8.588;2023-12-07T01:38:36;3.10;94.80
19847;DHT22;10084;50.518;8.588;2023-12-07T01:41:02;3.00;94.90
19847;DHT22;10084;50.518;8.588;2023-12-07T01:43:29;3.00;94.90
19847;DHT22;10084;50.518;8.588;2023-12-07T01:45:56;2.90;94.90
19847;DHT22;10084;50.518;8.588;2023-12-07T01:48:24;2.90;94.90
19847;DHT22;10084;50.518;8.588;2023-12-07T01:50:51;2.80;94.80
19847;DHT22;10084;50.518;8.588;2023-12-07T01:53:17;2.80;95.00
19847;DHT22;10084;50.518;8.588;2023-12-07T01:55:44;2.80;95.10
19847;DHT22;10084;50.518;8.588;2023-12-07T01:58:10;2.70;95.30
19847;DHT22;10084;50.518;8.588;2023-12-07T02:00:36;2.70;95.50
19847;DHT22;10084;50.518;8.588;2023-12-07T02:03:05;2.70;95.70
19847;DHT22;10084;50.518;8.588;2023-12-07T02:05:32;2.80;95.90
19847;DHT22;10084;50.518;8.588;2023-12-07T02:07:58;2.80;95.90
19847;DHT22;10084;50.518;8.588;2023-12-07T02:10:24;2.80;95.90
19847;DHT22;10084;50.518;8.588;2023-12-07T02:12:51;2.80;96.00
19847;DHT22;10084;50.518;8.588;2023-12-07T02:15:19;2.90;96.20
19847;DHT22;10084;50.518;8.588;2023-12-07T02:23:13;3.00;96.20
19847;DHT22;10084;50.518;8.588;2023-12-07T02:29:16;3.10;96.40
19847;DHT22;10084;50.518;8.588;2023-12-07T02:31:42;3.10;96.00
19847;DHT22;10084;50.518;8.588;2023-12-07T02:34:08;3.10;95.70
19847;DHT22;10084;50.518;8.588;2023-12-07T02:36:35;3.10;95.40
19847;DHT22;10084;50.518;8.588;2023-12-07T02:39:02;3.10;95.10
19847;DHT22;10084;50.518;8.588;2023-12-07T02:41:31;3.00;94.90
19847;DHT22;10084;50.518;8.588;2023-12-07T02:43:57;2.90;94.90
19847;DHT22;10084;50.518;8.588;2023-12-07T02:46:26;2.90;95.10
19847;DHT22;10084;50.518;8.588;2023-12-07T02:48:52;2.80;95.10
19847;DHT22;10084;50.518;8.588;2023-12-07T02:51:18;2.80;95.10
19847;DHT22;10084;50.518;8.588;2023-12-07T02:53:44;2.80;95.20
19847;DHT22;10084;50.518;8.588;2023-12-07T02:56:10;2.70;95.10
19847;DHT22;10084;50.518;8.588;2023-12-07T02:58:35;2.70;95.10
19847;DHT22;10084;50.518;8.588;2023-12-07T03:01:01;2.60;95.20
19847;DHT22;10084;50.518;8.588;2023-12-07T03:03:26;2.60;95.30
19847;DHT22;10084;50.518;8.588;2023-12-07T03:05:52;2.60;95.30
19847;DHT22;10084;50.518;8.588;2023-12-07T03:08:18;2.60;95.40
19847;DHT22;10084;50.518;8.588;2023-12-07T03:10:43;2.50;95.40
19847;DHT22;10084;50.518;8.588;2023-12-07T03:13:09;2.50;95.40
19847;DHT22;10084;50.518;8.588;2023-12-07T03:15:35;2.50;95.40
19847;DHT22;10084;50.518;8.588;2023-12-07T03:18:01;2.50;95.30
19847;DHT22;10084;50.518;8.588;2023-12-07T03:20:26;2.40;95.10
19847;DHT22;10084;50.518;8.588;2023-12-07T03:22:52;2.40;95.00
19847;DHT22;10084;50.518;8.588;2023-12-07T03:25:18;2.30;94.90
19847;DHT22;10084;50.518;8.588;2023-12-07T03:27:44;2.30;94.90
19847;DHT22;10084;50.518;8.588;2023-12-07T03:30:10;2.20;95.00
19847;DHT22;10084;50.518;8.588;2023-12-07T03:32:35;2.20;95.00
19847;DHT22;10084;50.518;8.588;2023-12-07T03:35:01;2.20;95.00
19847;DHT22;10084;50.518;8.588;2023-12-07T03:37:27;2.10;95.00
19847;DHT22;10084;50.518;8.588;2023-12-07T03:39:52;2.10;95.00
19847;DHT22;10084;50.518;8.588;2023-12-07T03:42:18;2.10;94.90
19847;DHT22;10084;50.518;8.588;2023-12-07T03:44:44;2.00;94.80
19847;DHT22;10084;50.518;8.588;2023-12-07T03:47:09;2.00;94.80
19847;DHT22;10084;50.518;8.588;2023-12-07T03:49:35;1.90;94.70
19847;DHT22;10084;50.518;8.588;2023-12-07T03:52:01;1.90;94.80
19847;DHT22;10084;50.518;8.588;2023-12-07T03:54:27;1.90;94.80
19847;DHT22;10084;50.518;8.588;2023-12-07T03:56:53;1.80;94.90
19847;DHT22;10084;50.518;8.588;2023-12-07T03:59:18;1.80;94.90
19847;DHT22;10084;50.518;8.588;2023-12-07T04:01:44;1.70;94.90
19847;DHT22;10084;50.518;8.588;2023-12-07T04:04:10;1.70;94.90
19847;DHT22;10084;50.518;8.588;2023-12-07T04:06:36;1.70;94.90
19847;DHT22;10084;50.518;8.588;2023-12-07T04:09:01;1.60;94.90
19847;DHT22;10084;50.518;8.588;2023-12-07T04:11:28;1.60;94.90
19847;DHT22;10084;50.518;8.588;2023-12-07T04:13:53;1.60;95.10
19847;DHT22;10084;50.518;8.588;2023-12-07T04:16:19;1.60;95.20
19847;DHT22;10084;50.518;8.588;2023-12-07T04:18:45;1.60;95.30
19847;DHT22;10084;50.518;8.588;2023-12-07T04:21:11;1.60;95.40
19847;DHT22;10084;50.518;8.588;2023-12-07T04:23:36;1.60;95.50
19847;DHT22;10084;50.518;8.588;2023-12-07T04:26:02;1.60;95.60
19847;DHT22;10084;50.518;8.588;2023-12-07T04:28:28;1.60;95.60
19847;DHT22;10084;50.518;8.588;2023-12-07T04:30:53;1.60;95.60
19847;DHT22;10084;50.518;8.588;2023-12-07T04:33:19;1.60;95.60
19847;DHT22;10084;50.518;8.588;2023-12-07T04:35:45;1.60;95.70
19847;DHT22;10084;50.518;8.588;2023-12-07T04:38:11;1.60;95.80
19847;DHT22;10084;50.518;8.588;2023-12-07T04:40:36;1.70;95.90
19847;DHT22;10084;50.518;8.588;2023-12-07T04:43:03;1.70;95.80
19847;DHT22;10084;50.518;8.588;2023-12-07T04:45:28;1.70;95.80
19847;DHT22;10084;50.518;8.588;2023-12-07T04:47:54;1.70;95.80
19847;DHT22;10084;50.518;8.588;2023-12-07T04:50:20;1.70;95.70
19847;DHT22;10084;50.518;8.588;2023-12-07T04:52:45;1.70;95.70
19847;DHT22;10084;50.518;8.588;2023-12-07T04:55:11;1.70;95.60
19847;DHT22;10084;50.518;8.588;2023-12-07T04:57:37;1.70;95.60
19847;DHT22;10084;50.518;8.588;2023-12-07T05:00:03;1.70;95.50
19847;DHT22;10084;50.518;8.588;2023-12-07T05:02:31;1.70;95.50
19847;DHT22;10084;50.518;8.588;2023-12-07T05:04:57;1.70;95.40
19847;DHT22;10084;50.518;8.588;2023-12-07T05:07:23;1.60;95.30
19847;DHT22;10084;50.518;8.588;2023-12-07T05:09:49;1.60;95.10
19847;DHT22;10084;50.518;8.588;2023-12-07T05:12:17;1.60;95.00
19847;DHT22;10084;50.518;8.588;2023-12-07T05:14:42;1.50;95.00
19847;DHT22;10084;50.518;8.588;2023-12-07T05:17:08;1.50;95.10
19847;DHT22;10084;50.518;8.588;2023-12-07T05:19:34;1.50;95.20
19847;DHT22;10084;50.518;8.588;2023-12-07T05:22:00;1.40;95.30
19847;DHT22;10084;50.518;8.588;2023-12-07T05:24:26;1.40;95.40
19847;DHT22;10084;50.518;8.588;2023-12-07T05:26:52;1.40;95.40
19847;DHT22;10084;50.518;8.588;2023-12-07T05:29:18;1.40;95.40
19847;DHT22;10084;50.518;8.588;2023-12-07T05:31:44;1.40;95.40
19847;DHT22;10084;50.518;8.588;2023-12-07T05:34:10;1.40;95.30
19847;DHT22;10084;50.518;8.588;2023-12-07T05:36:36;1.40;95.10
19847;DHT22;10084;50.518;8.588;2023-12-07T05:39:02;1.30;95.10
19847;DHT22;10084;50.518;8.588;2023-12-07T05:41:28;1.30;95.10
19847;DHT22;10084;50.518;8.588;2023-12-07T05:43:54;1.30;95.20
19847;DHT22;10084;50.518;8.588;2023-12-07T05:46:20;1.30;95.20
19847;DHT22;10084;50.518;8.588;2023-12-07T05:48:45;1.20;95.10
19847;DHT22;10084;50.518;8.588;2023-12-07T05:51:13;1.20;95.20
19847;DHT22;10084;50.518;8.588;2023-12-07T05:53:40;1.20;95.20
19847;DHT22;10084;50.518;8.588;2023-12-07T05:56:06;1.20;95.20
19847;DHT22;10084;50.518;8.588;2023-12-07T05:58:32;1.20;95.20
19847;DHT22;10084;50.518;8.588;2023-12-07T06:00:59;1.10;95.10
19847;DHT22;10084;50.518;8.588;2023-12-07T06:03:25;1.10;95.20
19847;DHT22;10084;50.518;8.588;2023-12-07T06:05:51;1.10;95.20
19847;DHT22;10084;50.518;8.588;2023-12-07T06:08:17;1.10;95.20
19847;DHT22;10084;50.518;8.588;2023-12-07T06:10:43;1.10;95.00
19847;DHT22;10084;50.518;8.588;2023-12-07T06:13:09;1.00;94.80
19847;DHT22;10084;50.518;8.588;2023-12-07T06:15:36;1.00;94.80
19847;DHT22;10084;50.518;8.588;2023-12-07T06:18:02;1.00;94.90
19847;DHT22;10084;50.518;8.588;2023-12-07T06:20:28;0.90;94.90
19847;DHT22;10084;50.518;8.588;2023-12-07T06:22:54;0.90;94.90
19847;DHT22;10084;50.518;8.588;2023-12-07T06:25:20;0.80;94.90
19847;DHT22;10084;50.518;8.588;2023-12-07T06:27:46;0.80;94.90
19847;DHT22;10084;50.518;8.588;2023-12-07T06:30:12;0.80;94.90
19847;DHT22;10084;50.518;8.588;2023-12-07T06:32:37;0.70;94.80
19847;DHT22;10084;50.518;8.588;2023-12-07T06:35:03;0.70;94.90
19847;DHT22;10084;50.518;8.588;2023-12-07T06:37:30;0.70;95.00
19847;DHT22;10084;50.518;8.588;2023-12-07T06:39:56;0.70;94.90
19847;DHT22;10084;50.518;8.588;2023-12-07T06:42:21;0.70;94.90
19847;DHT22;10084;50.518;8.588;2023-12-07T06:44:48;0.60;94.50
19847;DHT22;10084;50.518;8.588;2023-12-07T06:47:17;0.60;94.40
19847;DHT22;10084;50.518;8.588;2023-12-07T06:49:44;0.50;94.60
19847;DHT22;10084;50.518;8.588;2023-12-07T06:52:11;0.50;94.90
19847;DHT22;10084;50.518;8.588;2023-12-07T06:54:37;0.50;95.10
19847;DHT22;10084;50.518;8.588;2023-12-07T06:57:04;0.50;95.40
19847;DHT22;10084;50.518;8.588;2023-12-07T06:59:32;0.50;95.60
19847;DHT22;10084;50.518;8.588;2023-12-07T07:01:58;0.50;95.90
19847;DHT22;10084;50.518;8.588;2023-12-07T07:04:24;0.60;95.90
19847;DHT22;10084;50.518;8.588;2023-12-07T07:06:50;0.60;96.20
19847;DHT22;10084;50.518;8.588;2023-12-07T07:09:17;0.70;96.40
19847;DHT22;10084;50.518;8.588;2023-12-07T07:11:48;0.70;96.50
19847;DHT22;10084;50.518;8.588;2023-12-07T07:14:14;0.80;96.50
19847;DHT22;10084;50.518;8.588;2023-12-07T07:16:39;0.80;96.30
19847;DHT22;10084;50.518;8.588;2023-12-07T07:19:05;0.80;96.50
19847;DHT22;10084;50.518;8.588;2023-12-07T07:21:31;0.90;96.60
19847;DHT22;10084;50.518;8.588;2023-12-07T07:23:57;0.90;96.80
19847;DHT22;10084;50.518;8.588;2023-12-07T07:26:23;1.00;96.80
19847;DHT22;10084;50.518;8.588;2023-12-07T07:28:52;1.00;96.40
19847;DHT22;10084;50.518;8.588;2023-12-07T07:31:17;1.00;95.70
19847;DHT22;10084;50.518;8.588;2023-12-07T07:33:44;1.00;95.50
19847;DHT22;10084;50.518;8.588;2023-12-07T07:36:10;1.00;95.60
19847;DHT22;10084;50.518;8.588;2023-12-07T07:38:37;1.00;95.50
19847;DHT22;10084;50.518;8.588;2023-12-07T07:41:03;1.00;95.70
19847;DHT22;10084;50.518;8.588;2023-12-07T07:43:29;1.00;95.80
19847;DHT22;10084;50.518;8.588;2023-12-07T07:45:55;1.00;96.00
19847;DHT22;10084;50.518;8.588;2023-12-07T07:48:21;1.00;96.10
19847;DHT22;10084;50.518;8.588;2023-12-07T07:50:47;1.10;95.90
19847;DHT22;10084;50.518;8.588;2023-12-07T07:53:13;1.10;95.90
19847;DHT22;10084;50.518;8.588;2023-12-07T07:55:39;1.10;95.90
19847;DHT22;10084;50.518;8.588;2023-12-07T07:58:04;1.10;96.20
19847;DHT22;10084;50.518;8.588;2023-12-07T08:00:31;1.20;96.50
19847;DHT22;10084;50.518;8.588;2023-12-07T08:02:58;1.20;95.60
19847;DHT22;10084;50.518;8.588;2023-12-07T08:05:24;1.20;95.20
19847;DHT22;10084;50.518;8.588;2023-12-07T08:07:50;1.10;95.30
19847;DHT22;10084;50.518;8.588;2023-12-07T08:10:17;1.10;95.50
19847;DHT22;10084;50.518;8.588;2023-12-07T08:12:43;1.10;95.20
19847;DHT22;10084;50.518;8.588;2023-12-07T08:15:10;1.00;95.40
19847;DHT22;10084;50.518;8.588;2023-12-07T08:17:40;1.00;95.30
19847;DHT22;10084;50.518;8.588;2023-12-07T08:20:10;1.00;95.60
19847;DHT22;10084;50.518;8.588;2023-12-07T08:22:40;0.90;95.10
19847;DHT22;10084;50.518;8.588;2023-12-07T08:25:10;0.80;95.10
19847;DHT22;10084;50.518;8.588;2023-12-07T08:27:39;0.80;95.70
19847;DHT22;10084;50.518;8.588;2023-12-07T08:30:06;0.80;96.50
19847;DHT22;10084;50.518;8.588;2023-12-07T08:32:32;0.90;97.10
19847;DHT22;10084;50.518;8.588;2023-12-07T08:34:58;1.00;97.30
19847;DHT22;10084;50.518;8.588;2023-12-07T08:37:24;1.00;97.30
19847;DHT22;10084;50.518;8.588;2023-12-07T08:39:49;1.10;97.30
19847;DHT22;10084;50.518;8.588;2023-12-07T08:42:15;1.20;97.20
19847;DHT22;10084;50.518;8.588;2023-12-07T08:44:43;1.20;97.30
19847;DHT22;10084;50.518;8.588;2023-12-07T08:47:09;1.30;97.30
19847;DHT22;10084;50.518;8.588;2023-12-07T08:49:34;1.40;97.30
19847;DHT22;10084;50.518;8.588;2023-12-07T08:52:01;1.50;97.10
19847;DHT22;10084;50.518;8.588;2023-12-07T08:54:26;1.50;97.10
19847;DHT22;10084;50.518;8.588;2023-12-07T08:56:52;1.60;97.10
19847;DHT22;10084;50.518;8.588;2023-12-07T08:59:18;1.60;97.10
19847;DHT22;10084;50.518;8.588;2023-12-07T09:01:43;1.60;97.30
19847;DHT22;10084;50.518;8.588;2023-12-07T09:04:09;1.70;97.30
19847;DHT22;10084;50.518;8.588;2023-12-07T09:06:36;1.80;97.30
19847;DHT22;10084;50.518;8.588;2023-12-07T09:09:03;1.90;97.30
19847;DHT22;10084;50.518;8.588;2023-12-07T09:11:32;2.00;97.30
19847;DHT22;10084;50.518;8.588;2023-12-07T09:13:58;2.00;96.90
19847;DHT22;10084;50.518;8.588;2023-12-07T09:16:24;2.00;96.90
19847;DHT22;10084;50.518;8.588;2023-12-07T09:18:51;2.10;96.90
19847;DHT22;10084;50.518;8.588;2023-12-07T09:21:17;2.10;96.80
19847;DHT22;10084;50.518;8.588;2023-12-07T09:23:42;2.10;97.00
19847;DHT22;10084;50.518;8.588;2023-12-07T09:26:08;2.20;96.90
19847;DHT22;10084;50.518;8.588;2023-12-07T09:28:34;2.20;97.20
19847;DHT22;10084;50.518;8.588;2023-12-07T09:31:00;2.30;97.20
19847;DHT22;10084;50.518;8.588;2023-12-07T09:33:25;2.30;96.70
19847;DHT22;10084;50.518;8.588;2023-12-07T09:35:51;2.30;95.80
19847;DHT22;10084;50.518;8.588;2023-12-07T09:38:17;2.30;95.40
19847;DHT22;10084;50.518;8.588;2023-12-07T09:40:43;2.20;95.80
19847;DHT22;10084;50.518;8.588;2023-12-07T09:43:09;2.20;95.90
19847;DHT22;10084;50.518;8.588;2023-12-07T09:45:35;2.20;95.80
19847;DHT22;10084;50.518;8.588;2023-12-07T09:48:01;2.20;95.70
19847;DHT22;10084;50.518;8.588;2023-12-07T09:50:28;2.20;96.00
19847;DHT22;10084;50.518;8.588;2023-12-07T09:52:56;2.10;95.90
19847;DHT22;10084;50.518;8.588;2023-12-07T09:55:22;2.10;95.80
19847;DHT22;10084;50.518;8.588;2023-12-07T09:57:49;2.10;96.10
19847;DHT22;10084;50.518;8.588;2023-12-07T10:00:15;2.10;96.40
19847;DHT22;10084;50.518;8.588;2023-12-07T10:02:42;2.10;96.60
19847;DHT22;10084;50.518;8.588;2023-12-07T10:05:09;2.10;96.90
19847;DHT22;10084;50.518;8.588;2023-12-07T10:07:48;2.20;97.20
19847;DHT22;10084;50.518;8.588;2023-12-07T10:10:16;2.20;97.60
19847;DHT22;10084;50.518;8.588;2023-12-07T10:12:54;2.30;97.50
19847;DHT22;10084;50.518;8.588;2023-12-07T10:15:22;2.40;97.50
19847;DHT22;10084;50.518;8.588;2023-12-07T10:17:53;2.50;97.90
19847;DHT22;10084;50.518;8.588;2023-12-07T10:20:20;2.60;97.30
19847;DHT22;10084;50.518;8.588;2023-12-07T10:23:01;2.60;96.50
19847;DHT22;10084;50.518;8.588;2023-12-07T10:25:31;2.60;96.50
19847;DHT22;10084;50.518;8.588;2023-12-07T10:27:57;2.50;96.00
19847;DHT22;10084;50.518;8.588;2023-12-07T10:30:23;2.50;95.80
19847;DHT22;10084;50.518;8.588;2023-12-07T10:32:52;2.40;95.80
19847;DHT22;10084;50.518;8.588;2023-12-07T10:35:18;2.30;95.80
19847;DHT22;10084;50.518;8.588;2023-12-07T10:37:45;2.30;95.80
19847;DHT22;10084;50.518;8.588;2023-12-07T10:40:11;2.30;96.10
19847;DHT22;10084;50.518;8.588;2023-12-07T10:42:37;2.20;96.20
19847;DHT22;10084;50.518;8.588;2023-12-07T10:45:05;2.20;96.30
19847;DHT22;10084;50.518;8.588;2023-12-07T10:47:35;2.20;96.50
19847;DHT22;10084;50.518;8.588;2023-12-07T10:50:03;2.10;96.60
19847;DHT22;10084;50.518;8.588;2023-12-07T10:52:32;2.10;96.70
19847;DHT22;10084;50.518;8.588;2023-12-07T10:55:06;2.10;96.70
19847;DHT22;10084;50.518;8.588;2023-12-07T10:57:34;2.10;96.60
19847;DHT22;10084;50.518;8.588;2023-12-07T11:00:01;2.10;96.60
19847;DHT22;10084;50.518;8.588;2023-12-07T11:02:28;2.00;96.60
19847;DHT22;10084;50.518;8.588;2023-12-07T11:04:56;2.00;97.10
19847;DHT22;10084;50.518;8.588;2023-12-07T11:07:24;2.00;97.60
19847;DHT22;10084;50.518;8.588;2023-12-07T11:10:00;2.10;97.70
19847;DHT22;10084;50.518;8.588;2023-12-07T11:15:25;2.10;97.90
19847;DHT22;10084;50.518;8.588;2023-12-07T11:17:54;2.20;98.00
19847;DHT22;10084;50.518;8.588;2023-12-07T11:20:21;2.20;98.30
19847;DHT22;10084;50.518;8.588;2023-12-07T11:22:47;2.30;98.10
19847;DHT22;10084;50.518;8.588;2023-12-07T11:25:15;2.40;98.20
19847;DHT22;10084;50.518;8.588;2023-12-07T11:27:43;2.40;98.30
19847;DHT22;10084;50.518;8.588;2023-12-07T11:30:13;2.40;97.70
19847;DHT22;10084;50.518;8.588;2023-12-07T11:32:39;2.40;97.30
19847;DHT22;10084;50.518;8.588;2023-12-07T11:35:06;2.40;97.20
19847;DHT22;10084;50.518;8.588;2023-12-07T11:40:25;2.30;97.60
19847;DHT22;10084;50.518;8.588;2023-12-07T11:42:52;2.40;98.10
19847;DHT22;10084;50.518;8.588;2023-12-07T11:45:39;2.50;98.50
19847;DHT22;10084;50.518;8.588;2023-12-07T11:48:09;2.60;98.50
19847;DHT22;10084;50.518;8.588;2023-12-07T11:50:35;2.60;98.00
19847;DHT22;10084;50.518;8.588;2023-12-07T11:53:01;2.60;97.70
19847;DHT22;10084;50.518;8.588;2023-12-07T11:55:26;2.60;97.70
19847;DHT22;10084;50.518;8.588;2023-12-07T11:57:52;2.70;97.90
19847;DHT22;10084;50.518;8.588;2023-12-07T12:00:19;2.70;97.90
19847;DHT22;10084;50.518;8.588;2023-12-07T12:02:47;2.70;97.90
19847;DHT22;10084;50.518;8.588;2023-12-07T12:05:13;2.70;98.10
19847;DHT22;10084;50.518;8.588;2023-12-07T12:07:39;2.80;97.90
19847;DHT22;10084;50.518;8.588;2023-12-07T12:10:05;2.80;97.60
19847;DHT22;10084;50.518;8.588;2023-12-07T12:12:33;2.80;97.60
19847;DHT22;10084;50.518;8.588;2023-12-07T12:14:59;2.70;97.50
19847;DHT22;10084;50.518;8.588;2023-12-07T12:17:24;2.70;97.60
19847;DHT22;10084;50.518;8.588;2023-12-07T12:19:50;2.80;97.70
19847;DHT22;10084;50.518;8.588;2023-12-07T12:22:20;2.80;97.80
19847;DHT22;10084;50.518;8.588;2023-12-07T12:24:46;2.80;97.70
19847;DHT22;10084;50.518;8.588;2023-12-07T12:27:13;2.80;97.60
19847;DHT22;10084;50.518;8.588;2023-12-07T12:29:40;2.80;97.50
19847;DHT22;10084;50.518;8.588;2023-12-07T12:32:08;2.70;97.50
19847;DHT22;10084;50.518;8.588;2023-12-07T12:34:34;2.70;97.30
19847;DHT22;10084;50.518;8.588;2023-12-07T12:37:00;2.60;97.10
19847;DHT22;10084;50.518;8.588;2023-12-07T12:39:29;2.60;97.30
19847;DHT22;10084;50.518;8.588;2023-12-07T12:41:58;2.50;97.40
19847;DHT22;10084;50.518;8.588;2023-12-07T12:44:24;2.50;97.60
19847;DHT22;10084;50.518;8.588;2023-12-07T12:46:50;2.50;97.60
19847;DHT22;10084;50.518;8.588;2023-12-07T12:49:16;2.40;97.30
19847;DHT22;10084;50.518;8.588;2023-12-07T12:51:44;2.40;97.40
19847;DHT22;10084;50.518;8.588;2023-12-07T12:54:09;2.30;97.70
19847;DHT22;10084;50.518;8.588;2023-12-07T12:56:36;2.40;98.10
19847;DHT22;10084;50.518;8.588;2023-12-07T12:59:02;2.40;98.20
19847;DHT22;10084;50.518;8.588;2023-12-07T13:01:29;2.40;98.10
19847;DHT22;10084;50.518;8.588;2023-12-07T13:03:54;2.30;98.20
19847;DHT22;10084;50.518;8.588;2023-12-07T13:06:20;2.30;98.10
19847;DHT22;10084;50.518;8.588;2023-12-07T13:08:47;2.30;98.10
19847;DHT22;10084;50.518;8.588;2023-12-07T13:11:19;2.30;98.20
19847;DHT22;10084;50.518;8.588;2023-12-07T13:13:46;2.30;98.30
19847;DHT22;10084;50.518;8.588;2023-12-07T13:16:16;2.30;98.20
19847;DHT22;10084;50.518;8.588;2023-12-07T13:18:42;2.30;98.40
19847;DHT22;10084;50.518;8.588;2023-12-07T13:21:08;2.30;98.50
19847;DHT22;10084;50.518;8.588;2023-12-07T13:23:36;2.30;98.50
19847;DHT22;10084;50.518;8.588;2023-12-07T13:26:02;2.30;98.40
19847;DHT22;10084;50.518;8.588;2023-12-07T13:28:28;2.30;98.50
19847;DHT22;10084;50.518;8.588;2023-12-07T13:30:53;2.30;98.60
19847;DHT22;10084;50.518;8.588;2023-12-07T13:33:20;2.30;98.60
19847;DHT22;10084;50.518;8.588;2023-12-07T13:35:45;2.30;98.40
19847;DHT22;10084;50.518;8.588;2023-12-07T13:38:11;2.30;98.50
19847;DHT22;10084;50.518;8.588;2023-12-07T13:40:37;2.30;98.50
19847;DHT22;10084;50.518;8.588;2023-12-07T13:43:03;2.20;98.40
19847;DHT22;10084;50.518;8.588;2023-12-07T13:45:28;2.20;98.50
19847;DHT22;10084;50.518;8.588;2023-12-07T13:47:54;2.20;98.60
19847;DHT22;10084;50.518;8.588;2023-12-07T13:50:20;2.20;98.70
19847;DHT22;10084;50.518;8.588;2023-12-07T13:52:45;2.20;98.70
19847;DHT22;10084;50.518;8.588;2023-12-07T13:55:11;2.20;98.80
19847;DHT22;10084;50.518;8.588;2023-12-07T13:57:38;2.20;98.80
19847;DHT22;10084;50.518;8.588;2023-12-07T14:00:05;2.30;99.00
19847;DHT22;10084;50.518;8.588;2023-12-07T14:02:31;2.30;99.00
19847;DHT22;10084;50.518;8.588;2023-12-07T14:04:57;2.30;98.90
19847;DHT22;10084;50.518;8.588;2023-12-07T14:07:23;2.30;98.80
19847;DHT22;10084;50.518;8.588;2023-12-07T14:09:51;2.30;98.80
19847;DHT22;10084;50.518;8.588;2023-12-07T14:12:17;2.30;98.90
19847;DHT22;10084;50.518;8.588;2023-12-07T14:14:45;2.30;98.90
19847;DHT22;10084;50.518;8.588;2023-12-07T14:17:15;2.30;98.80
19847;DHT22;10084;50.518;8.588;2023-12-07T14:19:42;2.30;98.80
19847;DHT22;10084;50.518;8.588;2023-12-07T14:22:08;2.30;99.20
19847;DHT22;10084;50.518;8.588;2023-12-07T14:24:35;2.30;98.90
19847;DHT22;10084;50.518;8.588;2023-12-07T14:27:05;2.30;98.90
19847;DHT22;10084;50.518;8.588;2023-12-07T14:29:32;2.30;98.90
19847;DHT22;10084;50.518;8.588;2023-12-07T14:31:58;2.30;98.90
19847;DHT22;10084;50.518;8.588;2023-12-07T14:34:25;2.30;98.90
19847;DHT22;10084;50.518;8.588;2023-12-07T14:36:54;2.30;99.00
19847;DHT22;10084;50.518;8.588;2023-12-07T14:39:20;2.30;99.10
19847;DHT22;10084;50.518;8.588;2023-12-07T14:41:48;2.30;99.10
19847;DHT22;10084;50.518;8.588;2023-12-07T14:44:15;2.40;99.10
19847;DHT22;10084;50.518;8.588;2023-12-07T14:46:47;2.40;99.10
19847;DHT22;10084;50.518;8.588;2023-12-07T14:49:14;2.40;98.90
19847;DHT22;10084;50.518;8.588;2023-12-07T14:51:40;2.30;98.80
19847;DHT22;10084;50.518;8.588;2023-12-07T14:54:07;2.30;99.10
19847;DHT22;10084;50.518;8.588;2023-12-07T14:56:35;2.30;98.90
19847;DHT22;10084;50.518;8.588;2023-12-07T14:59:01;2.30;99.10
19847;DHT22;10084;50.518;8.588;2023-12-07T15:01:27;2.30;99.30
19847;DHT22;10084;50.518;8.588;2023-12-07T15:03:53;2.40;99.40
19847;DHT22;10084;50.518;8.588;2023-12-07T15:06:19;2.40;99.20
19847;DHT22;10084;50.518;8.588;2023-12-07T15:08:45;2.40;99.10
19847;DHT22;10084;50.518;8.588;2023-12-07T15:11:12;2.40;99.10
19847;DHT22;10084;50.518;8.588;2023-12-07T15:13:37;2.40;99.30
19847;DHT22;10084;50.518;8.588;2023-12-07T15:16:03;2.40;99.20
19847;DHT22;10084;50.518;8.588;2023-12-07T15:18:30;2.40;99.30
19847;DHT22;10084;50.518;8.588;2023-12-07T15:21:00;2.50;99.30
19847;DHT22;10084;50.518;8.588;2023-12-07T15:23:27;2.50;99.20
19847;DHT22;10084;50.518;8.588;2023-12-07T15:25:54;2.50;99.20
19847;DHT22;10084;50.518;8.588;2023-12-07T15:28:22;2.60;99.40
19847;DHT22;10084;50.518;8.588;2023-12-07T15:30:48;2.60;99.40
19847;DHT22;10084;50.518;8.588;2023-12-07T15:33:14;2.60;99.40
19847;DHT22;10084;50.518;8.588;2023-12-07T15:35:41;2.60;99.20
19847;DHT22;10084;50.518;8.588;2023-12-07T15:38:07;2.60;99.20
19847;DHT22;10084;50.518;8.588;2023-12-07T15:40:32;2.70;99.20
19847;DHT22;10084;50.518;8.588;2023-12-07T15:42:58;2.70;99.00
19847;DHT22;10084;50.518;8.588;2023-12-07T15:45:24;2.70;99.10
19847;DHT22;10084;50.518;8.588;2023-12-07T15:47:49;2.70;99.00
19847;DHT22;10084;50.518;8.588;2023-12-07T15:50:15;2.70;98.90
19847;DHT22;10084;50.518;8.588;2023-12-07T15:52:41;2.70;99.00
19847;DHT22;10084;50.518;8.588;2023-12-07T15:55:09;2.70;99.10